Terminal Aerodrome Forecast
Issued by NWS Sterling, VA

Home | Current Version | Previous Version | Text Only | Print | Product List | Glossary On
Versions: 1 2 3 4 5 6 7 8 9 10 11 12 13 14
000
FTUS41 KLWX 291728
TAFMRB
TAF
KMRB 291728Z 2918/3018 33005KT P6SM FEW050
     FM300000 17005KT P6SM BKN045
     FM300100 18005KT P6SM SCT050
     FM300300 20004KT P6SM SCT250
     FM301000 00000KT 6SM BR FEW250
     FM301300 00000KT P6SM SCT050=

USA.gov is the U.S. government's official web portal to all federal, state and local government web resources and services.